Time;durP1;ratioP1;P1;durP2;ratioP2;P2;SDS_P1;SDS_P2;PMS_P1;PMS_P2;Temp;Humidity;BMP_temperature;BMP_pressure;BME280_temperature;BME280_humidity;BME280_pressure;Samples;Min_cycle;Max_cycle;Signal;HPM_P1;HPM_P2
2022/08/17 00:00:47;;;;;;;5.13;4.80;;;;;;;27.25;53.18;98928.41;4914446;29;20663;-69
2022/08/17 00:03:16;;;;;;;5.13;4.83;;;;;;;27.28;52.04;98925.81;4903810;29;20277;-69
2022/08/17 00:05:45;;;;;;;5.57;5.00;;;;;;;27.31;52.73;98927.13;4896070;29;20198;-69
2022/08/17 00:08:14;;;;;;;4.70;4.47;;;;;;;27.38;52.20;98932.91;4895987;29;20202;-69
2022/08/17 00:10:41;;;;;;;5.77;5.13;;;;;;;27.44;51.67;98928.91;4895241;29;20211;-69
2022/08/17 00:13:12;;;;;;;4.80;4.33;;;;;;;27.44;51.87;98932.44;4895394;29;20202;-69
2022/08/17 00:15:39;;;;;;;5.43;4.50;;;;;;;27.46;52.01;98929.38;4895487;29;20205;-69
2022/08/17 00:18:06;;;;;;;4.63;4.33;;;;;;;27.42;51.96;98933.88;4895178;29;20206;-69
2022/08/17 00:20:32;;;;;;;4.50;4.10;;;;;;;27.40;52.06;98930.69;4894678;29;20729;-69
2022/08/17 00:23:08;;;;;;;4.77;4.47;;;;;;;27.31;52.35;98932.59;4895158;29;20226;-69
2022/08/17 00:25:35;;;;;;;6.40;4.27;;;;;;;27.11;53.56;98923.03;4895398;29;20190;-69
2022/08/17 00:28:01;;;;;;;4.93;4.40;;;;;;;27.11;52.99;98923.03;4896069;29;20194;-71
2022/08/17 00:30:30;;;;;;;5.27;4.70;;;;;;;27.12;52.78;98923.84;4896089;29;20204;-71
2022/08/17 00:32:57;;;;;;;5.23;4.83;;;;;;;27.17;52.54;98929.16;4898424;29;20666;-71
2022/08/17 00:35:26;;;;;;;7.23;4.57;;;;;;;27.14;52.40;98927.03;4899038;29;20210;-70
2022/08/17 00:37:53;;;;;;;5.17;4.27;;;;;;;26.93;52.80;98928.75;4900453;29;20202;-70
2022/08/17 00:40:21;;;;;;;5.10;4.70;;;;;;;26.76;52.32;98934.16;4899125;29;20202;-70
2022/08/17 00:42:48;;;;;;;6.17;4.33;;;;;;;26.68;52.92;98934.91;4899802;29;20201;-70
2022/08/17 00:45:19;;;;;;;4.90;4.37;;;;;;;26.53;53.29;98932.56;4898929;29;20202;-70
2022/08/17 00:47:48;;;;;;;6.90;4.27;;;;;;;26.53;53.69;98927.09;4900021;29;20285;-70
2022/08/17 00:50:19;;;;;;;5.37;4.73;;;;;;;26.53;54.16;98927.94;4899242;29;20233;-71
2022/08/17 00:52:52;;;;;;;4.97;4.43;;;;;;;26.53;53.95;98938.81;4899102;29;20198;-71
2022/08/17 00:55:21;;;;;;;4.63;4.33;;;;;;;26.29;54.92;98929.41;4899364;29;20189;-70
2022/08/17 00:57:51;;;;;;;6.27;4.60;;;;;;;26.39;55.08;98943.56;4899095;29;20229;-70
2022/08/17 01:00:25;;;;;;;6.40;4.57;;;;;;;26.29;55.15;98943.03;4898849;29;20210;-69
2022/08/17 01:02:57;;;;;;;5.10;4.60;;;;;;;26.18;55.67;98933.50;4907300;29;20196;-68
2022/08/17 01:05:27;;;;;;;4.90;4.50;;;;;;;26.29;55.24;98932.13;4917639;29;20193;-69
2022/08/17 01:07:56;;;;;;;5.80;4.63;;;;;;;26.29;55.32;98932.91;4917964;29;20720;-69
2022/08/17 01:10:28;;;;;;;4.37;3.97;;;;;;;26.26;55.86;98932.75;4918059;29;20198;-69
2022/08/17 01:12:56;;;;;;;4.50;4.20;;;;;;;26.15;55.52;98937.66;4918462;29;20197;-68
2022/08/17 01:15:23;;;;;;;5.50;5.10;;;;;;;25.98;55.97;98942.16;4917536;29;20201;-69
2022/08/17 01:17:50;;;;;;;5.13;4.63;;;;;;;26.04;56.84;98943.66;4917601;29;20197;-68
2022/08/17 01:20:18;;;;;;;5.17;4.83;;;;;;;26.18;56.69;98947.94;4917569;29;20688;-68
2022/08/17 01:22:46;;;;;;;5.13;4.53;;;;;;;26.36;55.79;98935.19;4916879;29;20229;-68
2022/08/17 01:25:14;;;;;;;4.87;3.93;;;;;;;26.40;55.60;98934.28;4917703;29;20280;-69
2022/08/17 01:27:42;;;;;;;4.83;4.23;;;;;;;26.40;54.97;98933.47;4917835;29;20201;-72
2022/08/17 01:30:12;;;;;;;4.90;4.47;;;;;;;26.31;55.02;98935.34;4917561;29;20202;-72
2022/08/17 01:32:39;;;;;;;11.40;4.50;;;;;;;26.35;54.88;98928.97;4917221;29;20197;-72
2022/08/17 01:35:07;;;;;;;4.53;4.33;;;;;;;26.34;55.06;98930.06;4917273;29;20778;-72
2022/08/17 01:37:38;;;;;;;4.77;4.37;;;;;;;26.46;55.40;98926.78;4917118;29;20248;-72
2022/08/17 01:40:13;;;;;;;4.93;4.13;;;;;;;26.53;55.80;98922.47;4917477;29;20193;-72
2022/08/17 01:42:44;;;;;;;4.60;4.30;;;;;;;26.59;54.69;98926.72;4916861;29;20700;-73
2022/08/17 01:45:16;;;;;;;4.70;4.40;;;;;;;26.55;54.52;98924.88;4917480;29;20186;-72
2022/08/17 01:47:43;;;;;;;5.27;4.73;;;;;;;26.55;54.94;98924.88;4917320;29;20185;-72
2022/08/17 01:50:14;;;;;;;4.57;4.03;;;;;;;26.52;54.13;98920.06;4916718;29;20669;-71
2022/08/17 01:52:42;;;;;;;4.47;4.23;;;;;;;26.49;54.25;98921.50;4917279;29;20193;-72
2022/08/17 01:55:12;;;;;;;5.23;4.73;;;;;;;26.41;54.77;98921.47;4917403;29;20229;-72
2022/08/17 01:57:39;;;;;;;5.70;4.80;;;;;;;26.39;54.73;98918.25;4916915;29;20561;-72
2022/08/17 02:00:09;;;;;;;8.07;4.10;;;;;;;26.27;55.43;98915.28;4916995;29;20201;-72
2022/08/17 02:02:36;;;;;;;4.77;4.30;;;;;;;26.16;55.57;98914.75;4910582;29;20299;-72
2022/08/17 02:05:03;;;;;;;5.53;4.10;;;;;;;26.02;55.94;98910.50;4897835;29;20741;-72
2022/08/17 02:07:30;;;;;;;4.53;4.10;;;;;;;26.08;56.33;98909.22;4897479;29;20205;-72
2022/08/17 02:09:57;;;;;;;4.60;4.20;;;;;;;26.12;56.59;98910.22;4897901;29;20198;-72
2022/08/17 02:12:25;;;;;;;4.77;3.90;;;;;;;26.20;55.85;98904.03;4898003;29;20209;-72
2022/08/17 02:14:52;;;;;;;4.47;4.17;;;;;;;26.22;56.71;98905.34;4897746;29;20682;-73
2022/08/17 02:17:19;;;;;;;4.87;4.47;;;;;;;26.30;55.62;98909.22;4897670;29;20254;-72
2022/08/17 02:19:45;;;;;;;4.53;4.03;;;;;;;26.26;55.27;98902.78;4897594;29;20666;-73
2022/08/17 02:22:12;;;;;;;5.23;4.83;;;;;;;26.20;56.08;98909.47;4897253;29;20222;-71
2022/08/17 02:24:39;;;;;;;4.63;4.23;;;;;;;26.17;55.87;98907.38;4898363;29;20230;-72
2022/08/17 02:27:06;;;;;;;4.43;4.03;;;;;;;26.08;55.70;98910.03;4897766;29;20194;-72
2022/08/17 02:29:34;;;;;;;6.10;4.10;;;;;;;26.01;55.86;98915.13;4897536;29;20596;-72
2022/08/17 02:32:01;;;;;;;14.23;5.23;;;;;;;25.96;56.66;98906.28;4897163;29;20209;-72
2022/08/17 02:34:30;;;;;;;6.73;4.50;;;;;;;25.92;56.29;98913.44;4897517;29;20588;-72
2022/08/17 02:36:57;;;;;;;4.67;4.30;;;;;;;25.93;57.26;98907.66;4897176;29;20205;-72
2022/08/17 02:39:24;;;;;;;6.57;4.80;;;;;;;25.91;56.79;98911.81;4897681;29;20270;-72
2022/08/17 02:41:59;;;;;;;6.03;5.53;;;;;;;25.80;57.49;98907.75;4897183;29;20226;-73
2022/08/17 02:44:26;;;;;;;5.50;4.97;;;;;;;25.82;57.71;98916.38;4898203;29;20638;-73
2022/08/17 02:46:54;;;;;;;5.20;4.90;;;;;;;25.75;57.91;98910.56;4897380;29;20265;-73
2022/08/17 02:49:21;;;;;;;6.40;4.70;;;;;;;25.67;58.11;98908.59;4897246;29;20290;-72
2022/08/17 02:51:49;;;;;;;5.50;5.07;;;;;;;25.68;58.18;98911.00;4897501;29;20261;-73
2022/08/17 02:54:16;;;;;;;5.93;5.07;;;;;;;25.55;58.82;98917.28;4896302;29;20205;-73
2022/08/17 02:56:43;;;;;;;6.23;5.20;;;;;;;25.53;59.37;98914.09;4897066;29;20206;-72
2022/08/17 02:59:10;;;;;;;5.83;5.30;;;;;;;25.58;58.78;98910.44;4897248;29;20198;-72
2022/08/17 03:01:37;;;;;;;5.47;4.80;;;;;;;25.60;58.63;98913.66;4897079;29;20222;-71
2022/08/17 03:04:05;;;;;;;7.07;5.10;;;;;;;25.65;58.75;98916.25;4914783;29;20245;-72
2022/08/17 03:06:31;;;;;;;6.57;5.93;;;;;;;25.56;59.33;98916.19;4915891;29;20205;-72
2022/08/17 03:08:58;;;;;;;6.87;5.27;;;;;;;25.48;58.80;98918.84;4915599;29;20197;-72
2022/08/17 03:11:25;;;;;;;7.10;4.77;;;;;;;25.47;59.60;98920.75;4915792;29;20257;-72
2022/08/17 03:13:52;;;;;;;6.63;5.83;;;;;;;25.47;59.42;98920.75;4916023;29;20253;-72
2022/08/17 03:16:18;;;;;;;5.60;5.10;;;;;;;25.46;59.15;98918.31;4915952;29;20265;-73
2022/08/17 03:18:45;;;;;;;6.07;5.40;;;;;;;25.49;58.99;98925.88;4915549;29;20201;-72
2022/08/17 03:21:13;;;;;;;6.00;5.00;;;;;;;25.37;59.47;98931.03;4915961;29;20201;-72
2022/08/17 03:23:41;;;;;;;6.67;6.07;;;;;;;25.27;60.16;98920.38;4915818;29;20310;-72
2022/08/17 03:26:09;;;;;;;6.27;5.60;;;;;;;25.04;60.87;98925.72;4915704;29;20241;-72
2022/08/17 03:28:35;;;;;;;6.93;5.33;;;;;;;24.92;61.40;98924.63;4915888;29;20630;-72
2022/08/17 03:31:02;;;;;;;8.33;7.53;;;;;;;24.85;61.70;98919.59;4915818;29;20200;-72
2022/08/17 03:33:30;;;;;;;6.90;5.80;;;;;;;24.89;61.29;98928.75;4915764;29;20201;-72
2022/08/17 03:35:57;;;;;;;5.43;4.93;;;;;;;24.83;62.34;98926.47;4915317;29;20211;-72
2022/08/17 03:38:26;;;;;;;7.83;5.87;;;;;;;24.79;61.74;98925.44;4915513;29;20733;-72
2022/08/17 03:40:53;;;;;;;6.07;5.40;;;;;;;24.88;61.92;98929.84;4915797;29;20201;-73
2022/08/17 03:43:22;;;;;;;5.90;5.30;;;;;;;24.86;62.29;98933.97;4915168;29;20578;-72
2022/08/17 03:57:00;;;;;;;8.23;5.50;;;;;;;25.39;60.43;98958.75;4915104;29;20216;-71
2022/08/17 03:59:26;;;;;;;6.20;5.63;;;;;;;25.24;60.57;98953.59;4915552;29;20195;-73
2022/08/17 04:01:57;;;;;;;7.10;6.13;;;;;;;25.22;61.09;98953.91;4914503;29;20280;-72
2022/08/17 04:04:24;;;;;;;6.83;5.43;;;;;;;25.53;60.67;98954.06;4896260;29;20198;-72
2022/08/17 04:06:51;;;;;;;5.53;5.07;;;;;;;25.87;59.48;98957.09;4899773;29;20201;-73
2022/08/17 04:09:19;;;;;;;7.07;5.77;;;;;;;26.24;58.59;98960.28;4899863;29;20679;-72
2022/08/17 04:11:46;;;;;;;8.13;6.20;;;;;;;26.60;57.39;98971.09;4899823;29;20206;-72
2022/08/17 04:14:13;;;;;;;6.43;5.70;;;;;;;27.00;56.11;98976.28;4899593;29;20625;-72
2022/08/17 04:16:40;;;;;;;14.13;7.00;;;;;;;27.45;55.18;98983.16;4899950;29;20202;-72
2022/08/17 04:19:07;;;;;;;9.30;6.00;;;;;;;27.96;53.67;98979.69;4899574;29;20262;-71
2022/08/17 04:21:34;;;;;;;13.30;5.93;;;;;;;28.49;52.02;98991.06;4899451;29;20206;-71
2022/08/17 04:24:01;;;;;;;13.70;6.10;;;;;;;29.03;50.40;98990.31;4900115;29;20316;-73
2022/08/17 04:26:29;;;;;;;11.50;5.63;;;;;;;29.46;48.62;98999.09;4899427;29;20750;-73
2022/08/17 04:28:57;;;;;;;8.63;5.30;;;;;;;29.82;48.04;99004.84;4899770;29;20257;-73
2022/08/17 04:31:26;;;;;;;10.57;6.30;;;;;;;30.03;46.70;99000.16;4899770;29;20198;-74
2022/08/17 04:33:53;;;;;;;8.50;5.33;;;;;;;30.40;45.74;99003.88;4899388;29;20206;-72
2022/08/17 04:36:20;;;;;;;11.93;6.07;;;;;;;30.78;44.82;98997.03;4899484;29;20222;-73
2022/08/17 04:38:47;;;;;;;7.00;5.07;;;;;;;31.20;42.92;99003.94;4899177;29;20722;-72
2022/08/17 04:44:02;;;;;;;5.60;4.83;;;;;;;31.88;40.15;99011.25;4899197;29;20660;-72
2022/08/17 04:46:32;;;;;;;5.43;4.90;;;;;;;32.08;39.86;99004.81;4899645;29;20226;-73
2022/08/17 04:49:01;;;;;;;5.30;4.80;;;;;;;32.14;39.48;99010.84;4898962;29;20202;-75
2022/08/17 04:51:30;;;;;;;5.67;4.90;;;;;;;32.53;38.85;99013.56;4899042;29;20202;-75
2022/08/17 04:53:59;;;;;;;5.43;4.87;;;;;;;32.72;38.43;99013.72;4898647;29;20202;-74
2022/08/17 04:56:27;;;;;;;4.50;4.30;;;;;;;32.93;38.04;99008.78;4898951;29;20197;-75
2022/08/17 04:58:56;;;;;;;6.30;4.57;;;;;;;33.11;37.47;99011.97;4898547;29;20257;-74
2022/08/17 05:01:26;;;;;;;5.53;4.80;;;;;;;33.40;36.67;99013.50;4898853;29;20671;-76
2022/08/17 05:03:55;;;;;;;17.33;5.17;;;;;;;33.61;36.48;99014.00;4909896;29;20260;-77
2022/08/17 05:06:22;;;;;;;4.77;4.37;;;;;;;33.78;36.33;99016.34;4917943;29;20201;-77
2022/08/17 05:08:49;;;;;;;7.40;4.80;;;;;;;33.93;35.85;99015.53;4917522;29;20202;-79
2022/08/17 05:11:15;;;;;;;7.80;4.57;;;;;;;34.19;35.62;99021.22;4917613;29;20674;-76
2022/08/17 05:13:43;;;;;;;5.10;4.57;;;;;;;34.22;34.75;99023.25;4917281;29;20209;-77
2022/08/17 05:16:11;;;;;;;6.65;4.68;;;;;;;34.36;34.22;99034.59;4917384;29;20197;-76
2022/08/17 05:18:39;;;;;;;5.20;4.45;;;;;;;34.33;34.43;99032.59;4917184;29;20257;-77
2022/08/17 05:21:06;;;;;;;8.40;4.57;;;;;;;34.40;33.36;99029.94;4917523;29;20198;-77
2022/08/17 05:23:32;;;;;;;4.55;4.18;;;;;;;34.36;32.94;99035.41;4917462;29;20247;-76
2022/08/17 05:25:59;;;;;;;13.55;4.93;;;;;;;34.40;32.88;99029.94;4917732;29;20280;-74
2022/08/17 05:28:27;;;;;;;10.27;4.40;;;;;;;34.19;33.10;99030.31;4917065;29;20201;-74
2022/08/17 05:30:55;;;;;;;4.38;3.97;;;;;;;34.55;32.78;99015.28;4917013;29;20572;-76
2022/08/17 05:33:25;;;;;;;4.72;4.32;;;;;;;34.59;32.92;99029.94;4916750;29;20205;-75
2022/08/17 05:35:56;;;;;;;4.65;4.25;;;;;;;34.27;32.89;99031.22;4917092;29;20209;-75
2022/08/17 05:38:24;;;;;;;4.85;4.28;;;;;;;34.40;32.55;99040.97;4917697;29;20193;-72
2022/08/17 05:40:52;;;;;;;8.15;4.38;;;;;;;34.61;32.52;99042.22;4917483;29;20237;-73
2022/08/17 05:43:21;;;;;;;5.67;4.00;;;;;;;34.58;32.16;99042.16;4916647;29;20224;-72
2022/08/17 05:45:54;;;;;;;4.22;3.92;;;;;;;34.82;32.13;99036.34;4916791;29;20202;-72
2022/08/17 05:48:21;;;;;;;5.32;4.47;;;;;;;35.06;31.48;99035.97;4916808;29;20218;-74
2022/08/17 05:50:55;;;;;;;6.55;3.88;;;;;;;35.03;31.52;99025.66;4916931;29;20265;-75
2022/08/17 05:53:31;;;;;;;4.97;4.57;;;;;;;34.84;31.77;99025.72;4916923;29;20223;-73
2022/08/17 05:56:09;;;;;;;4.53;4.13;;;;;;;34.97;31.55;99032.66;4917197;29;20189;-73
2022/08/17 05:58:48;;;;;;;4.75;4.30;;;;;;;35.02;32.09;99033.16;4916260;29;20193;-72
2022/08/17 06:01:28;;;;;;;4.40;4.03;;;;;;;35.34;30.70;99031.75;4916784;29;20200;-75
2022/08/17 06:04:05;;;;;;;6.32;4.30;;;;;;;35.30;31.03;99030.09;4899584;29;20781;-74
2022/08/17 06:06:40;;;;;;;6.75;4.18;;;;;;;35.24;31.12;99035.09;4897793;29;20190;-72
2022/08/17 06:09:21;;;;;;;6.13;3.78;;;;;;;35.24;30.81;99037.06;4897596;29;20198;-71
2022/08/17 06:11:53;;;;;;;3.78;3.53;;;;;;;34.94;30.90;99045.22;4897973;29;20198;-70
2022/08/17 06:14:31;;;;;;;5.28;3.80;;;;;;;34.96;31.31;99037.38;4897393;29;20262;-74
2022/08/17 06:17:04;;;;;;;5.03;3.70;;;;;;;35.16;31.27;99040.88;4895708;29;20198;-69
2022/08/17 06:19:36;;;;;;;4.07;3.58;;;;;;;35.06;31.28;99041.47;4889990;29;20198;-70
2022/08/17 06:22:05;;;;;;;3.97;3.50;;;;;;;35.01;30.78;99044.56;4897490;29;20237;-70
2022/08/17 06:24:38;;;;;;;4.18;3.95;;;;;;;34.99;31.13;99044.91;4888555;29;20733;-68
2022/08/17 06:27:12;;;;;;;3.85;3.58;;;;;;;34.73;31.53;99038.47;4893985;29;20214;-69
2022/08/17 06:29:44;;;;;;;6.68;4.03;;;;;;;34.62;31.48;99037.50;4892286;29;20591;-71
2022/08/17 06:32:13;;;;;;;4.60;4.20;;;;;;;34.51;31.89;99039.25;4896429;29;20814;-73
2022/08/17 06:34:43;;;;;;;5.63;4.18;;;;;;;33.97;32.36;99041.22;4895648;29;20305;-72
2022/08/17 06:37:32;;;;;;;8.02;4.43;;;;;;;34.09;32.71;99038.34;4895795;29;20293;-72
2022/08/17 06:40:19;;;;;;;4.80;4.33;;;;;;;34.08;32.26;99037.53;4894004;29;20237;-71
2022/08/17 06:42:56;;;;;;;6.28;3.80;;;;;;;34.05;32.33;99034.72;4891822;29;20221;-71
2022/08/17 06:45:27;;;;;;;12.40;4.50;;;;;;;34.44;32.35;99041.84;4894760;29;20196;-72
2022/08/17 06:48:01;;;;;;;11.25;4.70;;;;;;;34.72;32.30;99036.88;4896122;29;20601;-75
2022/08/17 06:50:34;;;;;;;5.88;4.28;;;;;;;34.59;32.01;99040.97;4896741;29;20194;-74
2022/08/17 06:53:11;;;;;;;5.47;4.00;;;;;;;34.80;30.99;99033.13;4895371;29;20782;-72
2022/08/17 06:55:47;;;;;;;4.88;4.35;;;;;;;34.89;31.44;99041.97;4893813;29;20635;-72
2022/08/17 06:58:19;;;;;;;11.65;4.47;;;;;;;35.10;31.43;99034.06;4895368;29;20249;-72
2022/08/17 07:00:48;;;;;;;4.38;4.03;;;;;;;35.05;31.22;99039.88;4891872;29;20206;-72
2022/08/17 07:03:25;;;;;;;10.73;4.82;;;;;;;34.51;32.23;99033.72;4893559;29;20286;-70
2022/08/17 07:05:56;;;;;;;7.25;4.60;;;;;;;34.31;32.07;99029.38;4896409;29;20251;-71
2022/08/17 07:08:32;;;;;;;7.35;4.47;;;;;;;34.75;31.87;99025.13;4896141;29;20197;-71
2022/08/17 07:11:03;;;;;;;5.20;4.20;;;;;;;34.80;31.66;99017.38;4896110;29;20197;-71
2022/08/17 07:13:38;;;;;;;5.75;3.78;;;;;;;35.21;31.09;99032.28;4896419;29;20241;-70
2022/08/17 07:16:21;;;;;;;7.22;4.15;;;;;;;35.32;31.64;99036.84;4896883;29;20198;-71
2022/08/17 07:18:52;;;;;;;5.18;4.13;;;;;;;35.37;31.09;99028.25;4896494;29;20669;-72
2022/08/17 07:21:27;;;;;;;8.80;4.63;;;;;;;35.07;31.43;99027.31;4896746;29;20324;-70
2022/08/17 07:24:29;;;;;;;6.25;4.40;;;;;;;34.84;31.90;99031.22;4896739;29;20237;-71
2022/08/17 07:27:07;;;;;;;5.60;4.25;;;;;;;35.12;31.86;99031.75;4878489;29;20258;-71
2022/08/17 07:29:39;;;;;;;8.18;4.30;;;;;;;34.90;32.05;99035.31;4877542;29;20258;-72
2022/08/17 07:32:09;;;;;;;6.15;4.30;;;;;;;34.98;31.81;99029.53;4878021;29;20274;-72
2022/08/17 07:35:10;;;;;;;5.82;3.80;;;;;;;34.94;31.88;99033.41;4877900;29;20203;-71
2022/08/17 07:37:38;;;;;;;5.53;4.30;;;;;;;35.08;32.00;99031.69;4877853;29;20663;-73
2022/08/17 07:40:20;;;;;;;8.65;4.53;;;;;;;35.18;31.56;99033.81;4878654;29;20198;-72
2022/08/17 07:43:14;;;;;;;4.80;4.38;;;;;;;34.84;31.91;99034.00;4881585;29;20211;-71
2022/08/17 07:48:48;;;;;;;5.85;4.40;;;;;;;35.26;30.80;99026.44;4882371;29;20189;-71
2022/08/17 07:51:18;;;;;;;17.60;5.47;;;;;;;35.64;30.51;99040.13;4885068;29;20193;-71
2022/08/17 07:53:45;;;;;;;5.70;4.65;;;;;;;35.32;30.91;99028.53;4900116;29;20685;-72
2022/08/17 07:56:32;;;;;;;8.23;4.10;;;;;;;35.16;31.51;99024.31;4900048;29;20265;-71
2022/08/17 07:59:09;;;;;;;4.45;4.03;;;;;;;35.61;30.99;99018.75;4901181;29;20198;-73
2022/08/17 08:01:36;;;;;;;5.72;3.92;;;;;;;35.82;30.67;99024.63;4900310;29;20610;-73
2022/08/17 08:04:17;;;;;;;4.45;3.72;;;;;;;35.35;30.59;99015.97;4917629;29;20735;-71
2022/08/17 08:06:51;;;;;;;6.15;4.15;;;;;;;35.62;30.13;99026.66;4919159;29;20624;-70
2022/08/17 08:09:31;;;;;;;4.38;3.80;;;;;;;35.43;30.42;99017.69;4916444;29;20616;-72
2022/08/17 08:11:59;;;;;;;10.73;4.47;;;;;;;35.12;30.85;99029.78;4903403;29;20204;-71
2022/08/17 08:14:31;;;;;;;8.57;3.90;;;;;;;35.24;30.89;99020.50;4908031;29;20210;-71
2022/08/17 08:17:01;;;;;;;6.32;3.92;;;;;;;35.38;30.46;99017.97;4899582;29;20190;-72
2022/08/17 08:19:29;;;;;;;11.70;4.70;;;;;;;35.91;29.68;99005.78;4897102;29;20627;-72
2022/08/17 08:22:04;;;;;;;4.22;3.92;;;;;;;35.67;29.10;99008.94;4899493;29;20209;-73
2022/08/17 08:24:55;;;;;;;4.72;3.83;;;;;;;35.83;29.78;99004.06;4898997;29;20717;-72
2022/08/17 08:27:34;;;;;;;4.10;3.80;;;;;;;36.30;28.68;99001.56;4911004;29;20197;-71
2022/08/17 08:30:08;;;;;;;8.65;3.70;;;;;;;36.79;27.41;98988.28;4918879;29;20254;-73
2022/08/17 08:32:48;;;;;;;5.90;3.75;;;;;;;36.66;27.18;98998.81;4917520;29;20193;-75
2022/08/17 08:35:28;;;;;;;8.45;4.80;;;;;;;36.58;28.07;98999.13;4917392;29;20257;-75
2022/08/17 08:38:07;;;;;;;4.22;3.83;;;;;;;36.78;26.64;98989.44;4917031;29;20265;-68
2022/08/17 08:40:45;;;;;;;7.22;4.18;;;;;;;37.01;26.84;98990.06;4915369;29;20730;-69
2022/08/17 08:43:26;;;;;;;5.85;3.40;;;;;;;36.49;28.35;98988.34;4916583;29;20268;-69
2022/08/17 08:46:02;;;;;;;4.55;4.10;;;;;;;36.53;27.60;98988.38;4915684;29;20185;-68
2022/08/17 08:48:56;;;;;;;10.80;4.30;;;;;;;36.97;26.28;98980.94;4916549;29;20186;-70
2022/08/17 08:51:36;;;;;;;4.13;3.65;;;;;;;36.89;27.34;98993.94;4911094;29;20243;-70
2022/08/17 08:54:14;;;;;;;7.72;3.80;;;;;;;36.67;27.22;98977.47;4898186;29;20198;-70
2022/08/17 08:56:48;;;;;;;4.50;4.00;;;;;;;36.40;27.66;98984.28;4899082;29;20230;-68
2022/08/17 08:59:24;;;;;;;6.30;3.90;;;;;;;36.41;27.34;98981.13;4900210;29;20193;-70
2022/08/17 09:02:03;;;;;;;5.47;3.35;;;;;;;36.63;27.73;98977.41;4893401;29;20194;-68
2022/08/17 09:04:53;;;;;;;4.30;3.72;;;;;;;36.56;27.06;98974.59;4896927;29;20309;-69
2022/08/17 09:07:29;;;;;;;3.85;3.53;;;;;;;36.68;26.04;98976.31;4897161;29;20190;-70
2022/08/17 09:10:06;;;;;;;4.70;3.10;;;;;;;36.45;25.51;98979.19;4896528;29;20202;-70
2022/08/17 09:12:46;;;;;;;6.63;3.20;;;;;;;36.35;25.69;98981.84;4898390;29;20681;-72
2022/08/17 09:15:18;;;;;;;7.88;3.28;;;;;;;36.22;26.15;98978.53;4908002;29;20280;-70
2022/08/17 09:17:52;;;;;;;4.72;3.20;;;;;;;36.29;25.42;98966.78;4911058;29;20250;-72
2022/08/17 09:20:24;;;;;;;5.82;3.45;;;;;;;36.44;25.58;98969.31;4897250;29;20197;-70
2022/08/17 09:22:58;;;;;;;3.67;3.35;;;;;;;36.54;25.57;98962.31;4904874;29;20194;-68
2022/08/17 09:25:29;;;;;;;6.15;3.15;;;;;;;36.43;26.18;98967.72;4898711;29;20717;-68
2022/08/17 09:27:59;;;;;;;3.30;3.10;;;;;;;36.10;25.94;98967.69;4898488;29;20211;-69
2022/08/17 09:30:28;;;;;;;5.80;3.00;;;;;;;36.30;26.37;98957.31;4898327;29;20693;-68
2022/08/17 09:33:01;;;;;;;4.25;2.92;;;;;;;36.13;26.22;98952.34;4898627;29;20280;-67
2022/08/17 09:35:33;;;;;;;4.72;2.92;;;;;;;36.22;26.29;98963.94;4899126;29;20201;-70
2022/08/17 09:38:06;;;;;;;3.45;3.20;;;;;;;35.85;26.58;98969.34;4898749;29;20210;-68
2022/08/17 09:40:35;;;;;;;2.88;2.70;;;;;;;35.96;26.79;98958.41;4898308;29;20194;-69
2022/08/17 09:43:11;;;;;;;3.10;2.80;;;;;;;36.20;25.40;98958.75;4898231;29;20201;-68
2022/08/17 09:45:45;;;;;;;4.60;3.35;;;;;;;36.64;25.47;98956.88;4898285;29;20657;-69
2022/08/17 09:48:20;;;;;;;3.88;2.72;;;;;;;36.47;25.85;98953.91;4898153;29;20187;-70
2022/08/17 09:51:05;;;;;;;3.58;3.22;;;;;;;36.81;26.14;98955.47;4897993;29;20725;-69
2022/08/17 09:53:33;;;;;;;7.82;3.28;;;;;;;36.63;25.48;98954.47;4898366;29;20194;-69
2022/08/17 09:56:17;;;;;;;3.80;2.90;;;;;;;36.69;25.51;98958.50;4898694;29;20202;-70
2022/08/17 09:59:06;;;;;;;4.85;2.90;;;;;;;36.59;24.50;98946.13;4898074;29;20186;-68
2022/08/17 10:01:38;;;;;;;4.22;2.72;;;;;;;36.47;24.66;98948.38;4897808;29;20250;-68
2022/08/17 10:04:22;;;;;;;8.82;3.50;;;;;;;36.47;24.61;98945.63;4915312;29;20209;-69
2022/08/17 10:06:58;;;;;;;5.47;3.03;;;;;;;36.67;24.54;98945.00;4916961;29;20197;-69
2022/08/17 10:09:40;;;;;;;3.83;3.00;;;;;;;36.87;24.19;98948.41;4917288;29;20253;-69
2022/08/17 10:12:19;;;;;;;11.00;3.13;;;;;;;36.56;24.82;98954.41;4905145;29;20194;-70
2022/08/17 10:15:03;;;;;;;3.50;2.72;;;;;;;36.64;25.10;98936.69;4895729;29;20197;-69
2022/08/17 10:17:35;;;;;;;6.47;2.85;;;;;;;36.77;25.07;98943.56;4894445;29;20281;-68
2022/08/17 10:20:12;;;;;;;18.92;3.70;;;;;;;36.37;26.04;98938.00;4898493;29;20198;-66
2022/08/17 10:28:22;;;;;;;3.10;2.88;;;;;;;36.57;25.31;98929.13;4892679;29;20209;-66
2022/08/17 10:30:53;;;;;;;9.88;3.15;;;;;;;36.51;24.95;98930.66;4896678;29;20281;-67
2022/08/17 10:33:23;;;;;;;4.38;2.72;;;;;;;36.72;24.41;98927.31;4895357;29;20261;-67
2022/08/17 10:36:01;;;;;;;6.00;3.40;;;;;;;36.88;25.27;98925.88;4897739;29;20197;-67
2022/08/17 10:38:36;;;;;;;5.95;3.30;;;;;;;36.91;24.37;98927.09;4897436;29;20226;-67
2022/08/17 10:41:17;;;;;;;3.85;3.33;;;;;;;36.74;25.29;98922.16;4897242;29;20638;-73
2022/08/17 10:43:52;;;;;;;3.20;2.90;;;;;;;36.83;25.83;98920.66;4897340;29;20217;-67
2022/08/17 10:46:24;;;;;;;2.95;2.75;;;;;;;36.95;25.42;98914.06;4897769;29;20642;-68
2022/08/17 10:49:23;;;;;;;8.57;2.85;;;;;;;36.97;25.00;98917.22;4897313;29;20344;-68
2022/08/17 10:51:53;;;;;;;9.68;3.20;;;;;;;37.38;24.44;98909.59;4897056;29;20198;-66
2022/08/17 10:54:39;;;;;;;7.90;3.38;;;;;;;37.24;23.99;98907.56;4897397;29;20286;-68
2022/08/17 10:57:33;;;;;;;6.80;3.05;;;;;;;37.22;23.79;98913.50;4896195;29;20194;-67
2022/08/17 11:00:02;;;;;;;3.05;2.47;;;;;;;37.38;24.89;98907.63;4895762;29;20657;-67
2022/08/17 11:02:33;;;;;;;6.38;3.00;;;;;;;37.75;24.24;98910.25;4898792;29;20194;-66
2022/08/17 11:05:16;;;;;;;6.90;2.70;;;;;;;37.36;22.89;98910.00;4911784;29;20651;-67
2022/08/17 11:08:06;;;;;;;3.35;3.05;;;;;;;37.18;23.53;98903.56;4912881;29;20618;-66
2022/08/17 11:10:46;;;;;;;4.10;3.60;;;;;;;37.34;24.01;98895.75;4911379;29;20249;-69
2022/08/17 11:13:30;;;;;;;3.38;2.75;;;;;;;37.19;24.07;98891.28;4877831;29;20191;-68
2022/08/17 11:16:10;;;;;;;3.85;2.90;;;;;;;37.43;23.92;98893.41;4891373;29;20636;-67
2022/08/17 11:19:10;;;;;;;8.13;2.70;;;;;;;37.90;23.07;98893.28;4909333;29;20583;-68
2022/08/17 11:22:01;;;;;;;6.88;3.20;;;;;;;37.65;22.79;98884.06;4908288;29;20197;-70
2022/08/17 11:24:35;;;;;;;20.08;4.28;;;;;;;37.38;23.04;98885.47;4894989;29;20253;-68
2022/08/17 11:27:07;;;;;;;3.53;2.55;;;;;;;37.80;23.24;98880.13;4898831;29;20684;-69
2022/08/17 11:29:46;;;;;;;3.15;2.65;;;;;;;37.81;22.64;98887.31;4903210;29;20273;-70
2022/08/17 11:32:33;;;;;;;5.03;2.67;;;;;;;37.74;21.89;98886.47;4898288;29;20713;-69
2022/08/17 11:35:10;;;;;;;12.10;2.70;;;;;;;37.54;22.08;98874.06;4901223;29;20228;-71
2022/08/17 11:37:57;;;;;;;8.50;3.00;;;;;;;37.43;22.72;98887.09;4914027;29;20276;-68
2022/08/17 11:40:43;;;;;;;4.03;2.38;;;;;;;37.54;22.36;98872.09;4914559;29;20189;-72
2022/08/17 11:43:48;;;;;;;3.30;3.08;;;;;;;37.88;21.93;98876.22;4907216;29;20189;-70
2022/08/17 11:46:24;;;;;;;3.00;2.72;;;;;;;38.08;21.83;98869.16;4910727;29;20217;-68
2022/08/17 11:52:10;;;;;;;2.67;2.47;;;;;;;38.50;22.00;98871.25;4908825;29;20573;-71
2022/08/17 11:54:42;;;;;;;3.30;3.00;;;;;;;38.57;21.85;98868.50;4913076;29;20197;-71
2022/08/17 11:58:00;;;;;;;2.78;2.58;;;;;;;38.38;21.57;98872.41;4913195;29;20190;-70
2022/08/17 12:00:56;;;;;;;3.67;2.50;;;;;;;38.57;21.94;98863.72;4911973;29;20186;-69
2022/08/17 12:03:52;;;;;;;4.38;2.80;;;;;;;38.38;21.58;98861.31;4912374;29;20228;-69
2022/08/17 12:06:34;;;;;;;5.03;2.97;;;;;;;38.02;21.78;98865.16;4911812;29;20189;-68
2022/08/17 12:09:07;;;;;;;2.75;2.38;;;;;;;38.22;21.23;98858.09;4907441;29;20635;-69
2022/08/17 12:11:41;;;;;;;4.00;2.45;;;;;;;38.25;21.70;98854.53;4906867;29;20292;-68
2022/08/17 12:14:16;;;;;;;5.45;2.30;;;;;;;37.94;21.58;98860.78;4910914;29;20202;-69
2022/08/17 12:16:43;;;;;;;4.43;2.30;;;;;;;37.69;21.38;98851.59;4913190;29;20276;-69
2022/08/17 12:19:18;;;;;;;4.18;3.05;;;;;;;37.45;21.57;98845.91;4912489;29;20240;-68
2022/08/17 12:21:52;;;;;;;2.70;2.50;;;;;;;37.42;21.43;98835.59;4912724;29;20201;-71
2022/08/17 12:24:31;;;;;;;2.50;2.30;;;;;;;37.43;21.89;98832.44;4913956;29;20269;-71